地図

経路データ

SID SEASON NUMBER BASIN SUBBASIN NAME ISO_TIME NATURE LAT LON WMO_WIND WMO_PRES WMO_AGENCY TRACK_TYPE DIST2LAND LANDFALL IFLAG USA_AGENCY USA_ATCF_ID USA_LAT USA_LON USA_RECORD USA_STATUS USA_WIND USA_PRES USA_SSHS USA_R34_NE USA_R34_SE USA_R34_SW USA_R34_NW USA_R50_NE USA_R50_SE USA_R50_SW USA_R50_NW USA_R64_NE USA_R64_SE USA_R64_SW USA_R64_NW USA_POCI USA_ROCI USA_RMW USA_EYE TOKYO_LAT TOKYO_LON TOKYO_GRADE TOKYO_WIND TOKYO_PRES TOKYO_R50_DIR TOKYO_R50_LONG TOKYO_R50_SHORT TOKYO_R30_DIR TOKYO_R30_LONG TOKYO_R30_SHORT TOKYO_LAND CMA_LAT CMA_LON CMA_CAT CMA_WIND CMA_PRES HKO_LAT HKO_LON HKO_CAT HKO_WIND HKO_PRES NEWDELHI_LAT NEWDELHI_LON NEWDELHI_GRADE NEWDELHI_WIND NEWDELHI_PRES NEWDELHI_CI NEWDELHI_DP NEWDELHI_POCI REUNION_LAT REUNION_LON REUNION_TYPE REUNION_WIND REUNION_PRES REUNION_TNUM REUNION_CI REUNION_RMW REUNION_R34_NE REUNION_R34_SE REUNION_R34_SW REUNION_R34_NW REUNION_R50_NE REUNION_R50_SE REUNION_R50_SW REUNION_R50_NW REUNION_R64_NE REUNION_R64_SE REUNION_R64_SW REUNION_R64_NW BOM_LAT BOM_LON BOM_TYPE BOM_WIND BOM_PRES BOM_TNUM BOM_CI BOM_RMW BOM_R34_NE BOM_R34_SE BOM_R34_SW BOM_R34_NW BOM_R50_NE BOM_R50_SE BOM_R50_SW BOM_R50_NW BOM_R64_NE BOM_R64_SE BOM_R64_SW BOM_R64_NW BOM_ROCI BOM_POCI BOM_EYE BOM_POS_METHOD BOM_PRES_METHOD NADI_LAT NADI_LON NADI_CAT NADI_WIND NADI_PRES WELLINGTON_LAT WELLINGTON_LON WELLINGTON_WIND WELLINGTON_PRES DS824_LAT DS824_LON DS824_STAGE DS824_WIND DS824_PRES TD9636_LAT TD9636_LON TD9636_STAGE TD9636_WIND TD9636_PRES TD9635_LAT TD9635_LON TD9635_WIND TD9635_PRES TD9635_ROCI NEUMANN_LAT NEUMANN_LON NEUMANN_CLASS NEUMANN_WIND NEUMANN_PRES MLC_LAT MLC_LON MLC_CLASS MLC_WIND MLC_PRES USA_GUST BOM_GUST BOM_GUST_PER REUNION_GUST REUNION_GUST_PER USA_SEAHGT USA_SEARAD_NE USA_SEARAD_SE USA_SEARAD_SW USA_SEARAD_NW STORM_SPEED STORM_DIR
1938325N09089 1938 67 NI BB NOT_NAMED 1938-11-21 00:00:00 TS 9.00000 89.4000 main 744 744 _________O____ -1 9.00000 89.4000 TC 30 0 0
1938325N09089 1938 67 NI BB NOT_NAMED 1938-11-21 03:00:00 TS 9.00000 89.4000 main 744 744 _________PO___ -1 9.00000 89.4000 TC 30 9.00000 89.4000 1 0 0
1938325N09089 1938 67 NI BB NOT_NAMED 1938-11-21 06:00:00 TS 9.00629 89.3869 main 744 744 _________OP___ -1 9.00000 89.4000 TC 30 9.01572 89.3673 1 0 0
1938325N09089 1938 67 NI BB NOT_NAMED 1938-11-21 09:00:00 TS 9.01078 89.3776 main 744 744 _________PP___ -1 9.00000 89.4000 TC 30 9.02514 89.3477 1 0 0
1938325N09089 1938 67 NI BB NOT_NAMED 1938-11-21 12:00:00 TS 9.01100 89.3771 main 744 744 _________OP___ -1 9.00000 89.4000 TC 30 9.02200 89.3542 1 0 0
1938325N09089 1938 67 NI BB NOT_NAMED 1938-11-21 15:00:00 TS 9.00000 89.4000 main 744 744 _________PO___ -1 9.00000 89.4000 TC 30 9.00000 89.4000 1 1 113
1938325N09089 1938 67 NI BB NOT_NAMED 1938-11-21 18:00:00 TS 8.97956 89.4425 main 744 729 _________OP___ -1 9.00000 89.4000 TC 30 8.95913 89.4850 1 1 116
1938325N09089 1938 67 NI BB NOT_NAMED 1938-11-21 21:00:00 TS 8.94723 89.5085 main 729 729 _________PP___ -1 8.96993 89.4599 TC 30 8.92453 89.5570 1 0 113
1938325N09089 1938 67 NI BB NOT_NAMED 1938-11-22 00:00:00 TS 8.96384 89.4752 main 735 735 _________OP___ -1 9.00000 89.4000 TC 30 8.92768 89.5504 1 3 297
1938325N09089 1938 67 NI BB NOT_NAMED 1938-11-22 03:00:00 TS 9.07746 89.2487 main 769 769 _________PO___ -1 9.15493 89.0974 TC 33 9.00000 89.4000 1 7 296
1938325N09089 1938 67 NI BB NOT_NAMED 1938-11-22 06:00:00 TS 9.28313 88.8171 main 793 746 _________OP___ -1 9.40000 88.6000 TC 37 9.16626 89.0341 1 11 295
1938325N09089 1938 67 NI BB NOT_NAMED 1938-11-22 09:00:00 TS 9.54404 88.2513 main 746 683 _________PP___ -1 9.68510 87.9800 TC 41 9.40297 88.5225 1 13 295
1938325N09089 1938 67 NI BB NOT_NAMED 1938-11-22 12:00:00 TS 9.84406 87.6123 main 683 636 _________OP___ -1 10.0000 87.3000 TC 45 9.68812 87.9246 1 14 296
1938325N09089 1938 67 NI BB NOT_NAMED 1938-11-22 15:00:00 TS 10.1462 86.9924 main 636 591 _________PO___ -1 10.2924 86.6849 TC 49 10.0000 87.3000 3 13 297
1938325N09089 1938 67 NI BB NOT_NAMED 1938-11-22 18:00:00 TS 10.4620 86.3976 main 596 552 _________OP___ -1 10.6000 86.1000 TC 54 10.3240 86.6952 3 14 300
1938325N09089 1938 67 NI BB NOT_NAMED 1938-11-22 21:00:00 TS 10.8153 85.7942 main 552 523 _________PP___ -1 10.9650 85.5051 TC 59 10.6655 86.0833 3 13 301
1938325N09089 1938 67 NI BB NOT_NAMED 1938-11-23 00:00:00 TS 11.1496 85.2523 main 523 499 _________OP___ -1 11.3000 85.0000 TC 64 10.9991 85.5046 3 11 302
1938325N09089 1938 67 NI BB NOT_NAMED 1938-11-23 03:00:00 TS 11.4112 84.8311 main 497 478 _________PO___ -1 11.5223 84.6623 TC 64 11.3000 85.0000 4 9 302
1938325N09089 1938 67 NI BB NOT_NAMED 1938-11-23 06:00:00 TS 11.6156 84.5061 main 478 442 _________OP___ -1 11.7000 84.4000 TC 64 11.5313 84.6122 4 7 303
1938325N09089 1938 67 NI BB NOT_NAMED 1938-11-23 09:00:00 TS 11.8146 84.1971 main 442 406 _________PP___ -1 11.9000 84.0925 TC 64 11.7293 84.3017 4 7 304
1938325N09089 1938 67 NI BB NOT_NAMED 1938-11-23 12:00:00 TS 12.0063 83.9202 main 406 381 _________OP___ -1 12.1000 83.8000 TC 64 11.9127 84.0405 4 6 307
1938325N09089 1938 67 NI BB NOT_NAMED 1938-11-23 15:00:00 TS 12.1962 83.6712 main 381 347 _________PO___ -1 12.2925 83.5424 TC 64 12.1000 83.8000 4 6 309
1938325N09089 1938 67 NI BB NOT_NAMED 1938-11-23 18:00:00 TS 12.4089 83.4117 main 347 324 _________OP___ -1 12.5000 83.3000 TC 64 12.3177 83.5234 4 7 312
1938325N09089 1938 67 NI BB NOT_NAMED 1938-11-23 21:00:00 TS 12.6462 83.1525 main 324 285 _________PP___ -1 12.7500 83.0425 TC 64 12.5424 83.2624 4 7 314
1938325N09089 1938 67 NI BB NOT_NAMED 1938-11-24 00:00:00 TS 12.8855 82.9101 main 285 260 _________OP___ -1 13.0000 82.8000 TC 64 12.7709 83.0203 4 6 315
1938325N09089 1938 67 NI BB NOT_NAMED 1938-11-24 03:00:00 TS 13.1000 82.6925 main 260 238 _________PO___ -1 13.2000 82.5849 TC 64 13.0000 82.8000 4 6 317
1938325N09089 1938 67 NI BB NOT_NAMED 1938-11-24 06:00:00 TS 13.3124 82.5016 main 238 216 _________OP___ -1 13.4000 82.4000 TC 64 13.2249 82.6033 4 6 322
1938325N09089 1938 67 NI BB NOT_NAMED 1938-11-24 09:00:00 TS 13.5499 82.3349 main 216 205 _________PP___ -1 13.6500 82.2425 TC 64 13.4498 82.4273 4 6 327
1938325N09089 1938 67 NI BB NOT_NAMED 1938-11-24 12:00:00 TS 13.7874 82.1813 main 205 184 _________OP___ -1 13.9000 82.1000 TC 64 13.6749 82.2626 4 5 327
1938325N09089 1938 67 NI BB NOT_NAMED 1938-11-24 15:00:00 TS 14.0000 82.0287 main 184 175 _________PO___ -1 14.1000 81.9574 TC 64 13.9000 82.1000 4 5 323
1938325N09089 1938 67 NI BB NOT_NAMED 1938-11-24 18:00:00 TS 14.2003 81.8584 main 178 161 _________OP___ -1 14.3000 81.8000 TC 64 14.1006 81.9167 4 5 320
1938325N09089 1938 67 NI BB NOT_NAMED 1938-11-24 21:00:00 TS 14.4163 81.6674 main 163 129 _________PP___ -1 14.5275 81.6000 TC 64 14.3050 81.7348 4 6 322
1938325N09089 1938 67 NI BB NOT_NAMED 1938-11-25 00:00:00 TS 14.6659 81.4802 main 129 99 _________OP___ -1 14.8000 81.4000 TC 64 14.5319 81.5605 4 6 328
1938325N09089 1938 67 NI BB NOT_NAMED 1938-11-25 03:00:00 TS 14.9637 81.3175 main 89 55 _________PO___ -1 15.1275 81.2350 TC 55 14.8000 81.4000 4 7 335
1938325N09089 1938 67 NI BB NOT_NAMED 1938-11-25 06:00:00 TS 15.3159 81.1723 main 55 15 _________OP___ -1 15.5000 81.1000 TC 47 15.1319 81.2445 4 8 340
1938325N09089 1938 67 NI BB NOT_NAMED 1938-11-25 09:00:00 TS 15.7025 81.0451 main 10 0 _________PP___ -1 15.9000 80.9850 TC 38 15.5050 81.1052 4 8 344
1938325N09089 1938 67 NI BB NOT_NAMED 1938-11-25 12:00:00 TS 16.1003 80.9441 main 0 0 _________OP___ -1 16.3000 80.9000 TC 30 15.9006 80.9883 4 8 347
1938325N09089 1938 67 NI BB NOT_NAMED 1938-11-25 15:00:00 TS 16.4750 80.8675 main 0 0 _________PO___ -1 16.6500 80.8350 TC 30 16.3000 80.9000 1 7 351
1938325N09089 1938 67 NI BB NOT_NAMED 1938-11-25 18:00:00 TS 16.8218 80.8253 main 0 0 _________OP___ -1 17.0000 80.8000 TC 30 16.6881 80.8442 1 7 356
1938325N09089 1938 67 NI BB NOT_NAMED 1938-11-25 21:00:00 TS 17.1940 80.8059 main 0 0 _________PP___ -1 17.3875 80.7925 TC 30 17.0650 80.8148 1 7 358
1938325N09089 1938 67 NI BB NOT_NAMED 1938-11-26 00:00:00 TS 17.5562 80.8020 main 0 0 _________OP___ -1 17.8000 80.8000 TC 30 17.4343 80.8030 1 6 358
1938325N09089 1938 67 NI BB NOT_NAMED 1938-11-26 03:00:00 NR 17.8000 80.8000 main 0 __________O___ -1 TC 17.8000 80.8000 1 5 358

IBTrACS Databaseについて

本データベースは、米国NOAAが公開する1842年以降の世界の熱帯低気圧のベストトラックデータアーカイブInternational Best Track Archive for Climate Stewardship (IBTrACS)を、ウェブで閲覧しやすい形式に変換したものです。

最終更新日:2021-10-08